createdAt,value
2022-09-01T00:00:03.002Z,70.34
2022-09-01T00:02:34.072Z,70.53
2022-09-01T00:05:04.766Z,70.71
2022-09-01T00:07:32.570Z,70.76
2022-09-01T00:10:01.196Z,71.03
2022-09-01T00:12:30.013Z,70.95
2022-09-01T00:14:59.215Z,70.81
2022-09-01T00:17:27.752Z,71.52
2022-09-01T00:19:55.479Z,71.41
2022-09-01T00:22:23.217Z,71.33
2022-09-01T00:24:50.833Z,71.52
2022-09-01T00:27:18.406Z,71.92
2022-09-01T00:29:46.607Z,71.82
2022-09-01T00:32:14.638Z,72.28
2022-09-01T00:34:42.308Z,72.00
2022-09-01T00:37:09.948Z,72.26
2022-09-01T00:39:37.548Z,72.07
2022-09-01T00:42:05.941Z,72.54
2022-09-01T00:44:35.941Z,72.56
2022-09-01T00:47:03.670Z,72.42
2022-09-01T00:49:37.767Z,72.87
2022-09-01T00:52:21.007Z,72.72
2022-09-01T00:54:53.806Z,72.91
2022-09-01T00:57:21.982Z,73.01
2022-09-01T01:00:01.665Z,72.80
2022-09-01T01:02:29.637Z,73.01
2022-09-01T01:05:00.808Z,73.13
2022-09-01T01:07:28.963Z,73.36
2022-09-01T01:09:56.690Z,73.40
2022-09-01T01:12:24.387Z,73.40
2022-09-01T01:14:51.955Z,73.37
2022-09-01T01:17:22.429Z,73.31
2022-09-01T01:20:16.659Z,73.22
2022-09-01T01:23:02.387Z,73.11
2022-09-01T01:25:34.650Z,73.41
2022-09-01T01:28:09.932Z,73.61
2022-09-01T01:30:39.921Z,73.67
2022-09-01T01:33:08.167Z,73.77
2022-09-01T01:35:37.620Z,73.63
2022-09-01T01:38:07.852Z,73.76
2022-09-01T01:40:38.163Z,73.58
2022-09-01T01:43:06.202Z,73.88
2022-09-01T01:45:34.108Z,73.53
2022-09-01T01:48:06.144Z,73.76
2022-09-01T01:50:36.061Z,73.58
2022-09-01T01:53:11.433Z,73.60
2022-09-01T01:55:41.912Z,73.77
2022-09-01T01:58:12.452Z,73.90
2022-09-01T02:00:44.763Z,74.04
2022-09-01T02:03:14.723Z,73.90
2022-09-01T02:05:42.341Z,73.97
2022-09-01T02:08:11.836Z,74.09
2022-09-01T02:10:47.758Z,73.95
2022-09-01T02:13:17.871Z,74.06
2022-09-01T02:15:48.451Z,74.33
2022-09-01T02:18:28.640Z,74.30
2022-09-01T02:20:59.305Z,74.32
2022-09-01T02:23:27.444Z,74.43
2022-09-01T02:26:17.856Z,74.13
2022-09-01T02:28:55.834Z,74.12
2022-09-01T02:31:32.209Z,73.93
2022-09-01T02:34:01.271Z,74.06
2022-09-01T02:36:32.906Z,74.23
2022-09-01T02:39:01.518Z,74.45
2022-09-01T02:41:30.215Z,74.36
2022-09-01T02:44:02.456Z,73.96
2022-09-01T02:46:31.055Z,73.86
2022-09-01T02:49:00.793Z,74.07
2022-09-01T02:51:29.311Z,74.17
2022-09-01T02:53:57.725Z,74.48
2022-09-01T02:56:27.695Z,74.28
2022-09-01T02:58:56.278Z,74.21
2022-09-01T03:01:31.539Z,74.36
2022-09-01T03:04:13.768Z,74.54
2022-09-01T03:06:41.698Z,74.35
2022-09-01T03:09:14.738Z,74.55
2022-09-01T03:11:45.289Z,74.40
2022-09-01T03:14:12.837Z,74.30
2022-09-01T03:16:41.291Z,74.67
2022-09-01T03:19:09.774Z,74.56
2022-09-01T03:21:41.200Z,74.61
2022-09-01T03:24:12.542Z,74.54
2022-09-01T03:26:40.578Z,74.69
2022-09-01T03:29:09.112Z,74.82
2022-09-01T03:31:38.289Z,74.99
2022-09-01T03:34:08.853Z,74.31
2022-09-01T03:36:50.660Z,74.83
2022-09-01T03:39:25.069Z,74.29
2022-09-01T03:41:52.760Z,74.76
2022-09-01T03:44:20.472Z,74.90
2022-09-01T03:46:48.144Z,74.48
2022-09-01T03:49:17.096Z,74.81
2022-09-01T03:51:45.376Z,74.95
2022-09-01T03:54:13.476Z,75.48
2022-09-01T03:56:41.763Z,75.31
2022-09-01T03:59:17.391Z,74.79
2022-09-01T04:01:46.929Z,75.08
2022-09-01T04:04:15.756Z,75.65
2022-09-01T04:06:46.292Z,75.36
2022-09-01T04:09:14.963Z,75.00
2022-09-01T04:11:46.448Z,75.63
2022-09-01T04:14:15.978Z,75.69
2022-09-01T04:17:03.343Z,75.21
2022-09-01T04:19:37.100Z,75.31
2022-09-01T04:25:09.456Z,75.68
2022-09-01T04:27:39.202Z,75.69
2022-09-01T04:30:10.858Z,75.88
2022-09-01T04:32:40.517Z,75.51
2022-09-01T04:35:11.623Z,76.05
2022-09-01T04:37:39.298Z,75.79
2022-09-01T04:40:08.759Z,75.69
2022-09-01T04:42:36.464Z,76.30
2022-09-01T04:45:10.045Z,76.09
2022-09-01T04:47:45.654Z,76.49
2022-09-01T04:50:18.866Z,76.27
2022-09-01T04:53:12.060Z,76.49
2022-09-01T04:55:46.270Z,76.59
2022-09-01T04:58:19.220Z,76.31
2022-09-01T05:00:52.216Z,76.81
2022-09-01T05:03:24.349Z,76.63
2022-09-01T05:06:20.448Z,76.39
2022-09-01T05:08:52.712Z,76.46
2022-09-01T05:11:39.918Z,76.87
2022-09-01T05:14:22.480Z,77.28
2022-09-01T05:16:54.036Z,77.19
2022-09-01T05:19:24.892Z,76.96
2022-09-01T05:21:57.182Z,77.08
2022-09-01T05:24:30.541Z,77.09
2022-09-01T05:27:01.408Z,76.93
2022-09-01T05:29:29.769Z,76.68
2022-09-01T05:31:58.959Z,77.01
2022-09-01T05:34:27.507Z,76.98
2022-09-01T05:37:00.059Z,77.06
2022-09-01T05:39:28.807Z,76.44
2022-09-01T05:41:59.145Z,76.78
2022-09-01T05:44:26.760Z,76.60
2022-09-01T05:46:59.757Z,76.28
2022-09-01T05:49:33.335Z,76.82
2022-09-01T05:52:04.443Z,76.97
2022-09-01T05:54:32.676Z,76.62
2022-09-01T05:57:23.387Z,76.36
2022-09-01T05:59:54.428Z,76.50
2022-09-01T06:02:27.026Z,76.12
2022-09-01T06:04:57.113Z,76.29
2022-09-01T06:07:29.269Z,76.07
2022-09-01T06:10:00.874Z,75.79
2022-09-01T06:12:29.092Z,75.70
2022-09-01T06:14:57.071Z,75.64
2022-09-01T06:17:29.695Z,75.16
2022-09-01T06:20:10.842Z,75.58
2022-09-01T06:22:41.312Z,74.89
2022-09-01T06:25:10.358Z,74.83
2022-09-01T06:27:42.741Z,74.85
2022-09-01T06:30:20.121Z,74.47
2022-09-01T06:33:02.025Z,74.45
2022-09-01T06:35:30.027Z,74.37
2022-09-01T06:38:00.089Z,74.13
2022-09-01T06:40:43.471Z,74.38
2022-09-01T06:43:16.379Z,73.97
2022-09-01T06:45:54.487Z,74.01
2022-09-01T06:48:24.304Z,74.00
2022-09-01T06:51:20.923Z,73.98
2022-09-01T06:53:56.853Z,73.93
2022-09-01T06:56:32.361Z,73.76
2022-09-01T06:59:04.286Z,73.48
2022-09-01T07:01:32.777Z,73.72
2022-09-01T07:04:01.678Z,73.79
2022-09-01T07:10:05.740Z,74.35
2022-09-01T07:13:04.838Z,74.46
2022-09-01T07:18:25.333Z,74.25
2022-09-01T07:21:38.729Z,74.58
2022-09-01T07:24:11.595Z,74.44
2022-09-01T07:26:35.740Z,74.54
2022-09-01T07:29:07.473Z,74.57
2022-09-01T07:34:46.495Z,74.64
2022-09-01T07:38:47.404Z,74.46
2022-09-01T07:43:22.523Z,74.19
2022-09-01T07:51:55.631Z,74.47
2022-09-01T07:54:25.391Z,74.75
2022-09-01T07:56:55.607Z,74.47
2022-09-01T07:59:24.362Z,74.36
2022-09-01T08:02:06.947Z,74.96
2022-09-01T08:04:34.971Z,74.73
2022-09-01T08:07:04.277Z,74.71
2022-09-01T08:09:37.451Z,75.05
2022-09-01T08:12:09.134Z,74.72
2022-09-01T08:14:46.818Z,75.30
2022-09-01T08:17:33.048Z,74.93
2022-09-01T08:20:09.842Z,74.97
2022-09-01T08:23:01.822Z,74.64
2022-09-01T08:25:36.221Z,74.20
2022-09-01T08:28:06.150Z,73.60
2022-09-01T08:30:35.673Z,73.58
2022-09-01T08:33:12.701Z,73.24
2022-09-01T08:35:49.220Z,73.13
2022-09-01T08:38:19.210Z,73.39
2022-09-01T08:40:57.000Z,72.86
2022-09-01T08:43:31.336Z,72.85
2022-09-01T08:46:19.795Z,71.72
2022-09-01T08:52:28.053Z,68.59
2022-09-01T08:54:58.184Z,67.50
2022-09-01T08:57:35.569Z,65.44
2022-09-01T09:00:26.359Z,64.04
2022-09-01T09:03:19.193Z,62.15
2022-09-01T09:06:25.945Z,60.89
2022-09-01T09:08:58.005Z,60.75
2022-09-01T09:11:46.606Z,60.14
2022-09-01T09:14:33.918Z,60.01
2022-09-01T09:17:02.356Z,58.15
2022-09-01T09:19:44.882Z,56.28
2022-09-01T09:22:16.797Z,55.24
2022-09-01T09:25:04.678Z,53.39
2022-09-01T09:27:39.144Z,52.34
2022-09-01T09:30:09.548Z,52.16
2022-09-01T09:33:49.813Z,50.57
2022-09-01T09:36:16.877Z,48.72
2022-09-01T09:38:44.549Z,46.63
2022-09-01T09:41:26.904Z,44.32
2022-09-01T09:44:23.146Z,43.15
2022-09-01T09:46:59.882Z,42.18
2022-09-01T09:49:36.151Z,40.19
2022-09-01T09:52:08.939Z,39.64
2022-09-01T09:54:42.044Z,39.46
2022-09-01T09:57:12.019Z,39.04
2022-09-01T09:59:58.714Z,38.02
2022-09-01T10:02:33.576Z,37.62
2022-09-01T10:05:23.754Z,37.37
2022-09-01T10:07:52.791Z,36.53
2022-09-01T10:10:42.738Z,35.93
2022-09-01T10:13:24.911Z,35.09
2022-09-01T10:15:56.102Z,34.36
2022-09-01T10:18:30.521Z,32.90
2022-09-01T10:24:17.676Z,32.63
2022-09-01T10:26:53.103Z,32.19
2022-09-01T10:29:34.767Z,31.88
2022-09-01T10:32:30.962Z,31.34
2022-09-01T10:34:59.804Z,31.03
2022-09-01T10:37:28.390Z,30.55
2022-09-01T10:40:13.317Z,30.08
2022-09-01T10:42:45.308Z,29.63
2022-09-01T10:45:34.844Z,29.14
2022-09-01T10:48:30.522Z,29.51
2022-09-01T10:51:29.049Z,28.89
2022-09-01T10:54:05.788Z,28.80
2022-09-01T10:56:51.806Z,28.55
2022-09-01T10:59:37.418Z,28.13
2022-09-01T11:02:29.438Z,27.40
2022-09-01T11:05:00.363Z,27.20
2022-09-01T11:07:58.159Z,26.08
2022-09-01T11:10:49.778Z,26.23
2022-09-01T11:13:50.942Z,25.61
2022-09-01T11:16:53.413Z,25.38
2022-09-01T11:19:44.442Z,24.74
2022-09-01T11:22:30.623Z,24.59
2022-09-01T11:25:12.104Z,23.86
2022-09-01T11:27:49.625Z,24.57
2022-09-01T11:30:55.646Z,24.64
2022-09-01T11:33:38.973Z,23.86
2022-09-01T11:36:15.237Z,23.22
2022-09-01T11:39:10.956Z,23.77
2022-09-01T11:41:39.991Z,24.01
2022-09-01T11:44:22.103Z,22.82
2022-09-01T11:46:52.176Z,22.77
2022-09-01T11:49:32.284Z,22.43
2022-09-01T11:52:02.130Z,22.42
2022-09-01T11:54:41.388Z,23.23
2022-09-01T11:57:28.212Z,23.12
2022-09-01T11:59:58.664Z,23.69
2022-09-01T12:02:36.979Z,23.63
2022-09-01T12:05:31.231Z,24.28
2022-09-01T12:08:00.601Z,24.20
2022-09-01T12:10:38.465Z,23.54
2022-09-01T12:13:20.307Z,23.58
2022-09-01T12:16:17.016Z,24.62
2022-09-01T12:18:48.752Z,25.36
2022-09-01T12:21:28.600Z,24.65
2022-09-01T12:24:17.983Z,25.05
2022-09-01T12:26:47.679Z,24.71
2022-09-01T12:29:16.791Z,24.81
2022-09-01T12:31:47.483Z,24.47
2022-09-01T12:34:33.344Z,24.75
2022-09-01T12:37:28.113Z,25.52
2022-09-01T12:39:59.648Z,25.77
2022-09-01T12:42:40.846Z,25.40
2022-09-01T12:45:11.104Z,25.57
2022-09-01T12:47:48.426Z,25.69
2022-09-01T12:50:17.496Z,26.92
2022-09-01T12:52:52.447Z,27.10
2022-09-01T12:58:12.308Z,26.97
2022-09-01T13:00:57.143Z,27.13
2022-09-01T13:03:27.673Z,27.10
2022-09-01T13:05:58.418Z,26.45
2022-09-01T13:08:34.375Z,27.00
2022-09-01T13:11:06.591Z,27.21
2022-09-01T13:13:35.449Z,27.14
2022-09-01T13:16:08.657Z,27.66
2022-09-01T13:19:10.638Z,28.19
2022-09-01T13:21:24.605Z,28.92
2022-09-01T13:23:52.223Z,29.48
2022-09-01T13:26:20.017Z,29.81
2022-09-01T13:28:47.834Z,30.45
2022-09-01T13:31:31.092Z,30.89
2022-09-01T13:34:21.920Z,31.03
2022-09-01T13:36:51.582Z,31.76
2022-09-01T13:39:20.971Z,32.29
2022-09-01T13:41:49.496Z,32.89
2022-09-01T13:44:18.547Z,32.40
2022-09-01T13:49:44.603Z,32.85
2022-09-01T13:52:22.982Z,32.18
2022-09-01T13:54:51.050Z,31.83
2022-09-01T13:57:18.680Z,32.03
2022-09-01T13:59:46.378Z,32.37
2022-09-01T14:02:14.019Z,30.92
2022-09-01T14:04:41.663Z,30.03
2022-09-01T14:07:09.286Z,30.06
2022-09-01T14:09:36.892Z,29.48
2022-09-01T14:12:05.487Z,29.70
2022-09-01T14:17:22.113Z,30.37
2022-09-01T14:19:51.132Z,30.75
2022-09-01T14:22:18.945Z,31.75
2022-09-01T14:24:47.000Z,31.75
2022-09-01T14:27:14.761Z,32.71
2022-09-01T14:32:09.116Z,33.68
2022-09-01T14:34:37.578Z,33.31
2022-09-01T14:37:05.671Z,33.41
2022-09-01T14:39:34.010Z,34.15
2022-09-01T14:42:01.766Z,34.03
2022-09-01T14:44:29.354Z,33.88
2022-09-01T14:46:57.209Z,34.55
2022-09-01T14:49:26.022Z,34.46
2022-09-01T14:52:11.095Z,35.08
2022-09-01T14:54:42.596Z,35.23
2022-09-01T14:59:59.632Z,35.72
2022-09-01T15:02:28.835Z,35.64
2022-09-01T15:04:57.084Z,35.49
2022-09-01T15:07:24.765Z,35.90
2022-09-01T15:09:52.858Z,36.20
2022-09-01T15:12:20.471Z,35.30
2022-09-01T15:14:48.289Z,35.54
2022-09-01T15:17:15.826Z,35.64
2022-09-01T15:19:43.573Z,35.43
2022-09-01T15:22:14.573Z,36.49
2022-09-01T15:24:43.125Z,36.65
2022-09-01T15:27:11.617Z,36.04
2022-09-01T15:29:47.970Z,36.54
2022-09-01T15:32:28.346Z,36.31
2022-09-01T15:34:56.683Z,36.32
2022-09-01T15:37:24.338Z,36.64
2022-09-01T15:39:51.920Z,36.54
2022-09-01T15:42:19.781Z,36.77
2022-09-01T15:44:47.647Z,36.45
2022-09-01T15:47:15.415Z,36.50
2022-09-01T15:49:43.268Z,36.97
2022-09-01T15:52:11.376Z,37.22
2022-09-01T15:54:39.378Z,37.61
2022-09-01T15:57:07.277Z,37.50
2022-09-01T15:59:40.136Z,37.41
2022-09-01T16:02:08.124Z,37.49
2022-09-01T16:04:36.740Z,37.64
2022-09-01T16:07:04.499Z,37.64
2022-09-01T16:09:32.674Z,37.96
2022-09-01T16:12:00.349Z,38.20
2022-09-01T16:14:28.517Z,38.77
2022-09-01T16:17:05.829Z,39.59
2022-09-01T16:19:45.496Z,40.62
2022-09-01T16:22:28.206Z,41.35
2022-09-01T16:25:00.916Z,41.35
2022-09-01T16:27:34.497Z,42.08
2022-09-01T16:30:08.116Z,42.48
2022-09-01T16:32:37.951Z,42.60
2022-09-01T16:35:05.835Z,43.29
2022-09-01T16:38:11.416Z,43.75
2022-09-01T16:41:08.581Z,43.53
2022-09-01T16:43:56.772Z,43.70
2022-09-01T16:46:35.678Z,43.84
2022-09-01T16:49:18.207Z,44.16
2022-09-01T16:51:57.723Z,43.99
2022-09-01T16:58:00.537Z,44.24
2022-09-01T17:00:57.156Z,44.41
2022-09-01T17:03:42.717Z,44.69
2022-09-01T17:06:29.150Z,44.61
2022-09-01T17:09:02.867Z,44.84
2022-09-01T17:11:51.799Z,44.56
2022-09-01T17:14:47.572Z,44.78
2022-09-01T17:17:21.348Z,44.63
2022-09-01T17:19:52.743Z,44.82
2022-09-01T17:22:21.665Z,45.10
2022-09-01T17:24:51.279Z,45.11
2022-09-01T17:27:47.089Z,45.09
2022-09-01T17:30:14.809Z,45.29
2022-09-01T17:32:54.500Z,45.13
2022-09-01T17:35:34.068Z,45.56
2022-09-01T17:38:20.335Z,45.86
2022-09-01T17:40:53.686Z,45.74
2022-09-01T17:43:45.700Z,46.25
2022-09-01T17:46:38.223Z,46.47
2022-09-01T17:49:26.435Z,46.56
2022-09-01T17:52:15.270Z,46.57
2022-09-01T17:55:04.896Z,46.71
2022-09-01T17:57:41.603Z,46.60
2022-09-01T18:00:09.615Z,46.26
2022-09-01T18:03:02.990Z,47.03
2022-09-01T18:05:42.901Z,46.82
2022-09-01T18:08:41.941Z,46.96
2022-09-01T18:11:17.424Z,46.97
2022-09-01T18:14:14.051Z,47.15
2022-09-01T18:16:58.918Z,47.67
2022-09-01T18:19:39.035Z,47.38
2022-09-01T18:22:15.039Z,47.77
2022-09-01T18:25:09.245Z,48.04
2022-09-01T18:27:38.125Z,48.14
2022-09-01T18:30:06.284Z,48.33
2022-09-01T18:33:05.728Z,48.84
2022-09-01T18:35:46.858Z,49.21
2022-09-01T18:38:33.123Z,49.08
2022-09-01T18:41:04.808Z,49.66
2022-09-01T18:43:37.683Z,49.92
2022-09-01T18:46:33.316Z,49.98
2022-09-01T18:49:04.633Z,50.09
2022-09-01T18:51:41.274Z,50.59
2022-09-01T18:54:18.020Z,50.88
2022-09-01T18:57:05.843Z,51.77
2022-09-01T18:59:36.932Z,52.19
2022-09-01T19:02:27.563Z,52.63
2022-09-01T19:05:02.384Z,53.24
2022-09-01T19:07:42.854Z,53.76
2022-09-01T19:10:33.693Z,53.99
2022-09-01T19:13:43.122Z,54.79
2022-09-01T19:16:43.226Z,54.65
2022-09-01T19:19:40.925Z,55.12
2022-09-01T19:22:14.922Z,55.27
2022-09-01T19:24:46.293Z,55.42
2022-09-01T19:27:21.431Z,55.26
2022-09-01T19:29:54.044Z,55.45
2022-09-01T19:32:24.226Z,55.31
2022-09-01T19:34:57.054Z,55.55
2022-09-01T19:37:26.146Z,55.44
2022-09-01T19:39:54.570Z,55.29
2022-09-01T19:42:28.268Z,55.37
2022-09-01T19:45:07.275Z,55.49
2022-09-01T19:48:00.203Z,55.78
2022-09-01T19:50:37.376Z,55.29
2022-09-01T19:53:11.923Z,55.39
2022-09-01T19:55:45.187Z,55.71
2022-09-01T19:58:24.931Z,55.81
2022-09-01T20:00:56.160Z,55.94
2022-09-01T20:03:42.578Z,56.02
2022-09-01T20:06:19.277Z,56.44
2022-09-01T20:09:06.059Z,56.78
2022-09-01T20:11:48.657Z,57.06
2022-09-01T20:14:34.974Z,57.39
2022-09-01T20:17:05.879Z,57.44
2022-09-01T20:19:42.830Z,57.89
2022-09-01T20:22:31.258Z,57.83
2022-09-01T20:25:09.850Z,58.24
2022-09-01T20:27:57.839Z,58.58
2022-09-01T20:30:29.579Z,58.65
2022-09-01T20:33:03.355Z,58.86
2022-09-01T20:35:45.816Z,59.20
2022-09-01T20:38:54.490Z,59.08
2022-09-01T20:41:49.745Z,59.45
2022-09-01T20:44:29.073Z,59.81
2022-09-01T20:46:57.816Z,59.77
2022-09-01T20:49:25.480Z,60.02
2022-09-01T20:52:00.236Z,60.33
2022-09-01T20:54:38.207Z,60.43
2022-09-01T20:57:11.738Z,60.70
2022-09-01T20:59:53.540Z,60.68
2022-09-01T21:02:39.723Z,60.77
2022-09-01T21:05:12.805Z,61.07
2022-09-01T21:08:08.506Z,61.42
2022-09-01T21:10:50.355Z,61.57
2022-09-01T21:13:42.535Z,61.50
2022-09-01T21:16:44.831Z,61.68
2022-09-01T21:19:18.815Z,61.84
2022-09-01T21:22:12.654Z,62.05
2022-09-01T21:24:44.913Z,62.25
2022-09-01T21:27:42.689Z,62.51
2022-09-01T21:30:14.447Z,62.29
2022-09-01T21:32:43.091Z,62.42
2022-09-01T21:35:14.137Z,62.53
2022-09-01T21:37:42.189Z,62.50
2022-09-01T21:40:11.293Z,62.29
2022-09-01T21:42:47.453Z,62.52
2022-09-01T21:45:18.329Z,62.40
2022-09-01T21:47:48.919Z,62.28
2022-09-01T21:50:19.301Z,62.26
2022-09-01T21:52:47.729Z,62.55
2022-09-01T21:55:20.675Z,62.34
2022-09-01T21:57:51.931Z,62.40
2022-09-01T22:00:24.298Z,62.31
2022-09-01T22:02:52.815Z,62.23
2022-09-01T22:05:21.007Z,62.08
2022-09-01T22:07:48.710Z,62.11
2022-09-01T22:10:21.000Z,62.11
2022-09-01T22:12:49.890Z,61.97
2022-09-01T22:15:20.150Z,62.01
2022-09-01T22:17:49.205Z,62.00
2022-09-01T22:20:19.862Z,61.92
2022-09-01T22:22:47.569Z,61.70
2022-09-01T22:25:18.250Z,61.52
2022-09-01T22:27:45.843Z,61.66
2022-09-01T22:30:14.323Z,61.55
2022-09-01T22:32:46.167Z,61.57
2022-09-01T22:35:16.059Z,61.43
2022-09-01T22:37:43.792Z,61.22
2022-09-01T22:40:12.675Z,61.21
2022-09-01T22:42:40.399Z,61.30
2022-09-01T22:45:09.891Z,61.13
2022-09-01T22:47:38.746Z,60.93
2022-09-01T22:50:08.440Z,61.05
2022-09-01T22:52:36.757Z,60.79
2022-09-01T22:55:06.258Z,60.87
2022-09-01T23:00:49.043Z,60.74
2022-09-01T23:03:18.193Z,60.82
2022-09-01T23:05:47.200Z,60.64
2022-09-01T23:08:16.453Z,60.59
2022-09-01T23:10:44.038Z,60.59
2022-09-01T23:13:11.627Z,60.43
2022-09-01T23:15:39.382Z,60.34
2022-09-01T23:18:07.004Z,60.29
2022-09-01T23:20:34.722Z,60.14
2022-09-01T23:23:04.111Z,59.93
2022-09-01T23:25:31.808Z,60.29
2022-09-01T23:27:59.336Z,60.24
2022-09-01T23:30:26.909Z,60.34
2022-09-01T23:32:54.574Z,60.31
2022-09-01T23:35:22.798Z,60.31
2022-09-01T23:37:50.420Z,60.45
2022-09-01T23:40:18.221Z,60.39
2022-09-01T23:42:45.898Z,60.57
2022-09-01T23:45:13.604Z,60.61
2022-09-01T23:47:41.254Z,60.57
2022-09-01T23:50:09.257Z,60.76
2022-09-01T23:52:36.838Z,60.90
2022-09-01T23:55:04.734Z,61.00
2022-09-01T23:57:32.429Z,60.92
2022-09-01T23:59:59.993Z,61.05
